Time;durP1;ratioP1;P1;durP2;ratioP2;P2;SDS_P1;SDS_P2;PMS_P1;PMS_P2;Temp;Humidity;BMP_temperature;BMP_pressure;BME280_temperature;BME280_humidity;BME280_pressure;Samples;Min_cycle;Max_cycle;Signal;HPM_P1;HPM_P2
2022/07/12 00:02:10;;;;;;;2.30;2.13;;;;;;;;;;5029294;28;20970;-73
2022/07/12 00:04:36;;;;;;;1.57;1.57;;;;;;;;;;5028962;28;20449;-73
2022/07/12 00:07:02;;;;;;;3.07;1.70;;;;;;;;;;5028845;28;20427;-73
2022/07/12 00:09:28;;;;;;;1.90;1.90;;;;;;;;;;5029212;28;20443;-74
2022/07/12 00:11:55;;;;;;;1.90;1.90;;;;;;;;;;5029779;28;20489;-73
2022/07/12 00:14:21;;;;;;;1.70;1.70;;;;;;;;;;5029388;28;20881;-73
2022/07/12 00:16:46;;;;;;;1.80;1.80;;;;;;;;;;5029031;28;20471;-73
2022/07/12 00:19:12;;;;;;;2.10;1.90;;;;;;;;;;5028850;28;21026;-73
2022/07/12 00:21:38;;;;;;;1.80;1.67;;;;;;;;;;5029946;28;20958;-73
2022/07/12 00:24:04;;;;;;;5.83;1.90;;;;;;;;;;5028775;28;20673;-73
2022/07/12 00:26:30;;;;;;;3.80;1.80;;;;;;;;;;5028633;28;20943;-73
2022/07/12 00:28:57;;;;;;;1.83;1.73;;;;;;;;;;5029118;28;20431;-74
2022/07/12 00:31:25;;;;;;;1.70;1.67;;;;;;;;;;5029285;28;20470;-73
2022/07/12 00:33:52;;;;;;;2.20;2.20;;;;;;;;;;5028108;28;20848;-73
2022/07/12 00:36:19;;;;;;;3.80;1.80;;;;;;;;;;5029897;28;20443;-73
2022/07/12 00:38:45;;;;;;;1.70;1.70;;;;;;;;;;5028606;28;20443;-73
2022/07/12 00:41:10;;;;;;;1.87;1.87;;;;;;;;;;5029885;28;20439;-73
2022/07/12 00:43:36;;;;;;;1.90;1.90;;;;;;;;;;5028490;28;20442;-73
2022/07/12 00:46:02;;;;;;;1.43;1.43;;;;;;;;;;5029176;28;20418;-73
2022/07/12 00:48:28;;;;;;;4.73;1.93;;;;;;;;;;5029741;28;20440;-73
2022/07/12 00:50:54;;;;;;;1.87;1.83;;;;;;;;;;5028923;28;20857;-73
2022/07/12 00:53:23;;;;;;;1.60;1.50;;;;;;;;;;5028728;28;20471;-73
2022/07/12 00:55:52;;;;;;;2.97;2.87;;;;;;;;;;5028601;28;20439;-73
2022/07/12 00:58:18;;;;;;;3.03;1.80;;;;;;;;;;5029548;28;20543;-73
2022/07/12 01:00:44;;;;;;;2.10;2.00;;;;;;;;;;5028573;28;20510;-73
2022/07/12 01:03:10;;;;;;;1.67;1.67;;;;;;;;;;5030167;28;21015;-73
2022/07/12 01:05:36;;;;;;;1.90;1.80;;;;;;;;;;5028674;28;20423;-73
2022/07/12 01:08:02;;;;;;;1.90;1.77;;;;;;;;;;5028998;28;20473;-73
2022/07/12 01:10:28;;;;;;;3.70;1.90;;;;;;;;;;5027374;28;20431;-73
2022/07/12 01:12:58;;;;;;;2.10;2.07;;;;;;;;;;5029304;28;20455;-73
2022/07/12 01:15:23;;;;;;;2.73;2.07;;;;;;;;;;5028686;28;20431;-73
2022/07/12 01:17:50;;;;;;;1.60;1.60;;;;;;;;;;5030025;28;20493;-73
2022/07/12 01:20:16;;;;;;;3.27;1.90;;;;;;;;;;5028653;28;20434;-73
2022/07/12 01:22:50;;;;;;;1.70;1.70;;;;;;;;;;5028589;28;20435;-73
2022/07/12 01:25:16;;;;;;;1.90;1.57;;;;;;;;;;5029095;28;20939;-73
2022/07/12 01:27:42;;;;;;;1.83;1.73;;;;;;;;;;5028873;28;20438;-73
2022/07/12 01:30:08;;;;;;;1.80;1.80;;;;;;;;;;5031027;28;20423;-73
2022/07/12 01:32:34;;;;;;;3.17;1.50;;;;;;;;;;5032782;28;20485;-73
2022/07/12 01:35:02;;;;;;;2.33;2.33;;;;;;;;;;5033584;28;20435;-73
2022/07/12 01:37:38;;;;;;;1.53;1.53;;;;;;;;;;5032588;28;20570;-73
2022/07/12 01:40:08;;;;;;;1.77;1.77;;;;;;;;;;5031964;28;20437;-73
2022/07/12 01:42:34;;;;;;;3.60;3.10;;;;;;;;;;5032718;28;20430;-73
2022/07/12 01:45:00;;;;;;;2.20;1.90;;;;;;;;;;5033555;28;20993;-73
2022/07/12 01:47:28;;;;;;;2.77;2.13;;;;;;;;;;5034725;28;20526;-73
2022/07/12 01:49:54;;;;;;;9.20;2.20;;;;;;;;;;5031270;28;20847;-73
2022/07/12 01:52:20;;;;;;;2.50;2.40;;;;;;;;;;5031469;28;20479;-73
2022/07/12 01:54:46;;;;;;;2.50;2.40;;;;;;;;;;5031763;28;20961;-73
2022/07/12 01:57:12;;;;;;;2.97;2.00;;;;;;;;;;5032267;28;20474;-74
2022/07/12 01:59:40;;;;;;;2.30;2.30;;;;;;;;;;5031144;28;20434;-73
2022/07/12 02:02:07;;;;;;;2.17;2.07;;;;;;;;;;5031409;28;20939;-74
2022/07/12 02:04:33;;;;;;;2.67;2.47;;;;;;;;;;5032642;28;20427;-73
2022/07/12 02:07:00;;;;;;;2.10;2.10;;;;;;;;;;5032271;28;20965;-73
2022/07/12 02:09:26;;;;;;;2.40;1.80;;;;;;;;;;5031589;28;20427;-73
2022/07/12 02:11:53;;;;;;;2.87;2.67;;;;;;;;;;5031678;28;20454;-73
2022/07/12 02:14:19;;;;;;;2.13;2.03;;;;;;;;;;5032297;28;20483;-73
2022/07/12 02:16:45;;;;;;;9.43;2.30;;;;;;;;;;5032132;28;20466;-73
2022/07/12 02:19:12;;;;;;;2.40;2.40;;;;;;;;;;5032129;28;20447;-73
2022/07/12 02:21:38;;;;;;;3.00;2.83;;;;;;;;;;5031566;28;20514;-73
2022/07/12 02:24:04;;;;;;;2.43;2.20;;;;;;;;;;5030655;28;20911;-73
2022/07/12 02:26:31;;;;;;;2.60;2.60;;;;;;;;;;5031940;28;20439;-73
2022/07/12 02:28:57;;;;;;;3.00;2.80;;;;;;;;;;5031073;28;20900;-75
2022/07/12 02:31:23;;;;;;;3.43;2.40;;;;;;;;;;5030961;28;20435;-73
2022/07/12 02:33:49;;;;;;;2.77;2.67;;;;;;;;;;5031467;28;20442;-73
2022/07/12 02:36:15;;;;;;;2.00;2.00;;;;;;;;;;5031443;28;20451;-73
2022/07/12 02:38:41;;;;;;;3.27;2.60;;;;;;;;;;5030992;28;20454;-73
2022/07/12 02:41:07;;;;;;;2.70;2.50;;;;;;;;;;5031555;28;20432;-73
2022/07/12 02:43:34;;;;;;;2.63;2.50;;;;;;;;;;5031166;28;20462;-73
2022/07/12 02:46:18;;;;;;;2.83;2.57;;;;;;;;;;5031265;28;20423;-73
2022/07/12 02:48:43;;;;;;;2.30;2.20;;;;;;;;;;5031802;28;20489;-74
2022/07/12 02:51:10;;;;;;;3.50;3.30;;;;;;;;;;5031105;28;20826;-74
2022/07/12 02:53:36;;;;;;;2.87;2.67;;;;;;;;;;5030520;28;20478;-73
2022/07/12 02:56:03;;;;;;;2.50;2.50;;;;;;;;;;5031517;28;20423;-73
2022/07/12 02:58:29;;;;;;;3.60;2.97;;;;;;;;;;5031434;28;20489;-73
2022/07/12 03:00:55;;;;;;;2.53;2.23;;;;;;;;;;5030802;28;20840;-73
2022/07/12 03:03:21;;;;;;;2.73;2.73;;;;;;;;;;5030836;28;20849;-73
2022/07/12 03:05:47;;;;;;;2.87;2.67;;;;;;;;;;5030922;28;20454;-73
2022/07/12 03:08:13;;;;;;;3.10;3.00;;;;;;;;;;5030874;28;20431;-73
2022/07/12 03:10:39;;;;;;;2.83;2.73;;;;;;;;;;5029778;28;20490;-73
2022/07/12 03:13:07;;;;;;;2.50;2.30;;;;;;;;;;5031464;28;20980;-73
2022/07/12 03:15:33;;;;;;;2.40;2.30;;;;;;;;;;5031018;28;20521;-73
2022/07/12 03:18:01;;;;;;;2.57;2.47;;;;;;;;;;5030800;28;20974;-73
2022/07/12 03:20:27;;;;;;;5.17;4.70;;;;;;;;;;5029446;28;20463;-73
2022/07/12 03:22:53;;;;;;;2.67;2.57;;;;;;;;;;5030804;28;20520;-73
2022/07/12 03:25:20;;;;;;;2.93;2.83;;;;;;;;;;5030574;28;20427;-73
2022/07/12 03:27:45;;;;;;;5.83;2.63;;;;;;;;;;5031039;28;20454;-73
2022/07/12 03:30:12;;;;;;;2.67;2.47;;;;;;;;;;5029664;28;20947;-73
2022/07/12 03:32:39;;;;;;;2.57;2.47;;;;;;;;;;5030935;28;20189;-73
2022/07/12 03:35:05;;;;;;;3.07;3.00;;;;;;;;;;5030057;28;21035;-73
2022/07/12 03:37:43;;;;;;;2.83;2.60;;;;;;;;;;5030033;28;20852;-73
2022/07/12 03:40:09;;;;;;;5.77;2.50;;;;;;;;;;5030250;28;20765;-73
2022/07/12 03:42:35;;;;;;;2.93;2.70;;;;;;;;;;5030988;28;20813;-73
2022/07/12 03:45:01;;;;;;;3.63;2.90;;;;;;;;;;5028156;28;20435;-73
2022/07/12 03:47:27;;;;;;;5.00;2.60;;;;;;;;;;5030226;28;20529;-73
2022/07/12 03:49:53;;;;;;;2.80;2.70;;;;;;;;;;5030139;28;20519;-73
2022/07/12 03:52:19;;;;;;;2.67;2.50;;;;;;;;;;5029115;28;20483;-74
2022/07/12 03:54:45;;;;;;;3.10;2.90;;;;;;;;;;5025014;28;20221;-73
2022/07/12 03:57:14;;;;;;;2.40;2.30;;;;;;;;;;5028413;28;20483;-73
2022/07/12 03:59:40;;;;;;;2.70;2.60;;;;;;;;;;5029261;28;20784;-73
2022/07/12 04:02:06;;;;;;;2.97;2.73;;;;;;;;;;5030173;28;20661;-73
2022/07/12 04:04:32;;;;;;;2.77;2.57;;;;;;;;;;5030275;28;20435;-73
2022/07/12 04:06:58;;;;;;;4.10;2.50;;;;;;;;;;5028722;28;20419;-80
2022/07/12 04:09:24;;;;;;;12.27;3.23;;;;;;;;;;5029011;28;20431;-80
2022/07/12 04:11:50;;;;;;;2.90;2.70;;;;;;;;;;5029170;28;20526;-80
2022/07/12 04:14:16;;;;;;;3.07;2.97;;;;;;;;;;5029002;28;20518;-77
2022/07/12 04:16:42;;;;;;;2.93;2.80;;;;;;;;;;5028713;28;20466;-76
2022/07/12 04:19:11;;;;;;;2.50;2.40;;;;;;;;;;5029326;28;20446;-80
2022/07/12 04:21:37;;;;;;;2.87;2.67;;;;;;;;;;5028403;28;20847;-75
2022/07/12 04:24:04;;;;;;;2.93;2.73;;;;;;;;;;5029230;28;20427;-76
2022/07/12 04:26:30;;;;;;;2.47;2.47;;;;;;;;;;5028075;28;20443;-79
2022/07/12 04:28:56;;;;;;;10.50;3.70;;;;;;;;;;5028944;28;20514;-80
2022/07/12 04:31:22;;;;;;;2.83;2.73;;;;;;;;;;5030066;28;20935;-77
2022/07/12 04:33:48;;;;;;;3.07;2.97;;;;;;;;;;5029317;28;20492;-79
2022/07/12 04:36:14;;;;;;;2.30;2.30;;;;;;;;;;5027833;28;20431;-81
2022/07/12 04:38:40;;;;;;;2.47;2.37;;;;;;;;;;5027940;28;20443;-81
2022/07/12 04:41:06;;;;;;;2.00;2.00;;;;;;;;;;5029261;28;20514;-80
2022/07/12 04:43:32;;;;;;;3.37;2.50;;;;;;;;;;5028863;28;20487;-77
2022/07/12 04:46:10;;;;;;;7.73;2.73;;;;;;;;;;5028910;28;20438;-77
2022/07/12 04:48:36;;;;;;;2.83;2.63;;;;;;;;;;5028039;28;20427;-75
2022/07/12 04:51:03;;;;;;;8.10;2.83;;;;;;;;;;5029048;28;20477;-78
2022/07/12 04:53:29;;;;;;;3.03;2.93;;;;;;;;;;5027322;28;20486;-81
2022/07/12 04:55:55;;;;;;;2.50;2.20;;;;;;;;;;5029680;28;20434;-79
2022/07/12 04:58:22;;;;;;;6.53;3.13;;;;;;;;;;5029059;28;21013;-76
2022/07/12 05:00:48;;;;;;;3.37;2.90;;;;;;;;;;5028983;28;20436;-77
2022/07/12 05:03:14;;;;;;;2.77;2.63;;;;;;;;;;5028750;28;20898;-75
2022/07/12 05:05:40;;;;;;;3.80;1.87;;;;;;;;;;5033044;28;20443;-74
2022/07/12 05:08:06;;;;;;;2.20;2.20;;;;;;;;;;5031143;28;20439;-76
2022/07/12 05:10:32;;;;;;;2.63;2.50;;;;;;;;;;5032465;28;20442;-74
2022/07/12 05:12:58;;;;;;;3.40;3.20;;;;;;;;;;5033268;28;20795;-73
2022/07/12 05:15:24;;;;;;;3.90;2.90;;;;;;;;;;5033049;28;20423;-74
2022/07/12 05:17:50;;;;;;;2.67;2.67;;;;;;;;;;5031771;28;20991;-76
2022/07/12 05:20:16;;;;;;;3.97;3.67;;;;;;;;;;5032478;28;20592;-77
2022/07/12 05:22:42;;;;;;;3.07;2.87;;;;;;;;;;5032719;28;20529;-75
2022/07/12 05:25:08;;;;;;;2.57;2.47;;;;;;;;;;5032716;28;20426;-75
2022/07/12 05:27:35;;;;;;;3.40;3.17;;;;;;;;;;5032847;28;20519;-74
2022/07/12 05:30:01;;;;;;;2.53;2.33;;;;;;;;;;5031792;28;20459;-78
2022/07/12 05:32:27;;;;;;;6.33;2.23;;;;;;;;;;5031981;28;20427;-75
2022/07/12 05:34:53;;;;;;;2.33;2.33;;;;;;;;;;5032384;28;20422;-76
2022/07/12 05:37:19;;;;;;;3.30;3.20;;;;;;;;;;5032323;28;20908;-76
2022/07/12 05:39:45;;;;;;;5.70;2.33;;;;;;;;;;5032047;28;20426;-77
2022/07/12 05:42:11;;;;;;;2.80;2.70;;;;;;;;;;5032612;28;20439;-79
2022/07/12 05:44:37;;;;;;;2.27;2.27;;;;;;;;;;5032382;28;20414;-80
2022/07/12 05:47:03;;;;;;;2.40;2.40;;;;;;;;;;5032180;28;20443;-79
2022/07/12 05:49:29;;;;;;;2.80;2.60;;;;;;;;;;5032041;28;20423;-80
2022/07/12 05:54:40;;;;;;;3.87;3.20;;;;;;;;;;5031919;28;20489;-77
2022/07/12 05:57:06;;;;;;;2.23;2.23;;;;;;;;;;5031758;28;20495;-74
2022/07/12 05:59:32;;;;;;;6.10;2.60;;;;;;;;;;5032173;28;20427;-73
2022/07/12 06:01:58;;;;;;;2.50;2.30;;;;;;;;;;5031937;28;20455;-73
2022/07/12 06:04:24;;;;;;;2.03;1.93;;;;;;;;;;5032038;28;20821;-73
2022/07/12 06:06:50;;;;;;;2.13;2.10;;;;;;;;;;5032108;28;20488;-73
2022/07/12 06:09:16;;;;;;;3.13;2.13;;;;;;;;;;5033806;28;20466;-74
2022/07/12 06:11:42;;;;;;;1.97;1.97;;;;;;;;;;5020831;28;20454;-73
2022/07/12 06:14:08;;;;;;;2.17;2.07;;;;;;;;;;5031450;28;20434;-75
2022/07/12 06:16:34;;;;;;;6.10;2.40;;;;;;;;;;5031015;28;20458;-73
2022/07/12 06:19:00;;;;;;;2.63;2.30;;;;;;;;;;5031383;28;20832;-73
2022/07/12 06:21:26;;;;;;;5.30;2.10;;;;;;;;;;5031377;28;20456;-73
2022/07/12 06:23:53;;;;;;;1.97;1.90;;;;;;;;;;5031053;28;20289;-73
2022/07/12 06:26:19;;;;;;;2.10;2.10;;;;;;;;;;5031126;28;20439;-73
2022/07/12 06:28:45;;;;;;;2.93;2.83;;;;;;;;;;5031322;28;20519;-73
2022/07/12 06:31:11;;;;;;;1.97;1.87;;;;;;;;;;5031130;28;20577;-74
2022/07/12 06:33:37;;;;;;;2.17;2.17;;;;;;;;;;5032001;28;20954;-73
2022/07/12 06:36:03;;;;;;;2.67;2.13;;;;;;;;;;5031115;28;20459;-73
2022/07/12 06:38:28;;;;;;;2.43;2.30;;;;;;;;;;5030140;28;20486;-73
2022/07/12 06:40:55;;;;;;;2.13;1.80;;;;;;;;;;5029842;28;20431;-73
2022/07/12 06:43:21;;;;;;;2.40;2.30;;;;;;;;;;5031832;28;20504;-73
2022/07/12 06:45:47;;;;;;;2.37;2.37;;;;;;;;;;5031982;28;20437;-73
2022/07/12 06:48:13;;;;;;;1.93;1.93;;;;;;;;;;5030162;28;20435;-72
2022/07/12 06:50:39;;;;;;;3.17;2.97;;;;;;;;;;5025694;28;20516;-74
2022/07/12 06:53:05;;;;;;;3.50;2.53;;;;;;;;;;5025654;28;20478;-73
2022/07/12 06:55:31;;;;;;;3.23;2.27;;;;;;;;;;5030455;28;20497;-73
2022/07/12 06:57:57;;;;;;;2.50;2.30;;;;;;;;;;5031053;28;20893;-72
2022/07/12 07:00:23;;;;;;;4.53;2.30;;;;;;;;;;5030252;28;20423;-74
2022/07/12 07:02:49;;;;;;;3.20;1.73;;;;;;;;;;5031470;28;20428;-73
2022/07/12 07:05:17;;;;;;;3.00;2.90;;;;;;;;;;5030796;28;20434;-73
2022/07/12 07:07:43;;;;;;;1.90;1.80;;;;;;;;;;5030412;28;20896;-73
2022/07/12 07:10:09;;;;;;;2.10;2.10;;;;;;;;;;5028191;28;20430;-73
2022/07/12 07:12:35;;;;;;;2.43;1.97;;;;;;;;;;5030510;28;20203;-73
2022/07/12 07:15:01;;;;;;;2.70;2.60;;;;;;;;;;5030715;28;20423;-73
2022/07/12 07:17:27;;;;;;;1.80;1.80;;;;;;;;;;5029451;28;20247;-74
2022/07/12 07:19:53;;;;;;;2.00;1.90;;;;;;;;;;5030252;28;20435;-73
2022/07/12 07:22:19;;;;;;;2.07;1.97;;;;;;;;;;5030518;28;20473;-73
2022/07/12 07:24:46;;;;;;;2.07;2.07;;;;;;;;;;5029467;28;20704;-73
2022/07/12 07:27:12;;;;;;;2.27;2.17;;;;;;;;;;5030275;28;20431;-74
2022/07/12 07:32:23;;;;;;;1.80;1.80;;;;;;;;;;5031452;28;20418;-74
2022/07/12 07:34:49;;;;;;;2.27;1.73;;;;;;;;;;5030394;28;20891;-73
2022/07/12 07:37:15;;;;;;;1.93;1.83;;;;;;;;;;5030173;28;20545;-73
2022/07/12 07:39:41;;;;;;;2.37;2.17;;;;;;;;;;5025465;28;20871;-73
2022/07/12 07:42:07;;;;;;;2.23;1.80;;;;;;;;;;5028096;28;20493;-75
2022/07/12 07:44:33;;;;;;;1.50;1.50;;;;;;;;;;5025361;28;21790;-75
2022/07/12 07:46:59;;;;;;;3.60;1.90;;;;;;;;;;5030055;28;20445;-75
2022/07/12 07:49:25;;;;;;;2.20;2.10;;;;;;;;;;5030474;28;20930;-73
2022/07/12 07:51:51;;;;;;;2.93;1.80;;;;;;;;;;5029988;28;20455;-76
2022/07/12 07:54:17;;;;;;;1.40;1.40;;;;;;;;;;5027148;28;20188;-75
2022/07/12 07:56:43;;;;;;;2.03;1.70;;;;;;;;;;5029608;28;20884;-77
2022/07/12 07:59:09;;;;;;;1.30;1.30;;;;;;;;;;5030317;28;20619;-78
2022/07/12 08:02:08;;;;;;;1.50;1.40;;;;;;;;;;5029621;28;20480;-76
2022/07/12 08:04:27;;;;;;;1.97;1.87;;;;;;;;;;5027649;28;20422;-75
2022/07/12 08:06:53;;;;;;;3.03;2.07;;;;;;;;;;5028633;28;20440;-74
2022/07/12 08:09:19;;;;;;;1.47;1.47;;;;;;;;;;5027806;28;21310;-75
2022/07/12 08:11:45;;;;;;;1.50;1.40;;;;;;;;;;5029297;28;20423;-74
2022/07/12 08:14:11;;;;;;;7.20;1.80;;;;;;;;;;5029573;28;20484;-73
2022/07/12 08:16:38;;;;;;;1.40;1.40;;;;;;;;;;5029950;28;20939;-75
2022/07/12 08:19:04;;;;;;;1.77;1.77;;;;;;;;;;5028842;28;20442;-74
2022/07/12 08:21:30;;;;;;;2.03;1.93;;;;;;;;;;5029604;28;20426;-75
2022/07/12 08:23:57;;;;;;;2.00;2.00;;;;;;;;;;5029613;28;20423;-75
2022/07/12 08:26:23;;;;;;;2.50;2.40;;;;;;;;;;5029852;28;20518;-74
2022/07/12 08:28:49;;;;;;;1.60;1.60;;;;;;;;;;5029980;28;20415;-74
2022/07/12 08:31:15;;;;;;;1.87;1.77;;;;;;;;;;5024692;28;20445;-73
2022/07/12 08:33:41;;;;;;;2.00;2.00;;;;;;;;;;5027040;28;20231;-75
2022/07/12 08:36:08;;;;;;;3.20;1.47;;;;;;;;;;5029496;28;20435;-73
2022/07/12 08:38:36;;;;;;;1.43;1.43;;;;;;;;;;5028644;28;20510;-73
2022/07/12 08:41:02;;;;;;;3.50;1.77;;;;;;;;;;5029258;28;20435;-73
2022/07/12 08:43:28;;;;;;;1.73;1.63;;;;;;;;;;5029065;28;20446;-73
2022/07/12 08:45:54;;;;;;;1.57;1.47;;;;;;;;;;5029320;28;20462;-73
2022/07/12 08:48:20;;;;;;;1.50;1.50;;;;;;;;;;5029123;28;20426;-73
2022/07/12 08:51:00;;;;;;;1.13;1.13;;;;;;;;;;5027735;28;20447;-73
2022/07/12 08:53:26;;;;;;;1.70;1.60;;;;;;;;;;5028357;28;20963;-68
2022/07/12 08:55:52;;;;;;;1.60;1.50;;;;;;;;;;5029122;28;20923;-67
2022/07/12 08:58:18;;;;;;;1.00;1.00;;;;;;;;;;5029461;28;20478;-67
2022/07/12 09:00:44;;;;;;;1.50;1.50;;;;;;;;;;5028112;28;20419;-67
2022/07/12 09:03:12;;;;;;;2.73;1.60;;;;;;;;;;5029368;28;20950;-67
2022/07/12 09:05:38;;;;;;;2.00;1.10;;;;;;;;;;5028930;28;20938;-67
2022/07/12 09:08:05;;;;;;;4.57;1.30;;;;;;;;;;5029308;28;20904;-67
2022/07/12 09:10:32;;;;;;;3.33;1.47;;;;;;;;;;5029054;28;20426;-66
2022/07/12 09:12:58;;;;;;;4.53;1.20;;;;;;;;;;5029499;28;20423;-67
2022/07/12 09:15:26;;;;;;;2.20;1.60;;;;;;;;;;5027713;28;20798;-73
2022/07/12 09:17:58;;;;;;;1.83;1.73;;;;;;;;;;5027595;28;20846;-74
2022/07/12 09:20:36;;;;;;;1.70;1.70;;;;;;;;;;5028975;28;20821;-74
2022/07/12 09:23:05;;;;;;;6.63;2.40;;;;;;;;;;5029261;28;20431;-75
2022/07/12 09:25:34;;;;;;;1.23;1.13;;;;;;;;;;5028881;28;20426;-74
2022/07/12 09:28:03;;;;;;;1.50;1.50;;;;;;;;;;5029294;28;20431;-74
2022/07/12 09:30:29;;;;;;;1.53;1.43;;;;;;;;;;5029031;28;20793;-73
2022/07/12 09:38:53;;;;;;;1.90;1.30;;;;;;;;;;5023420;28;20477;-75
2022/07/12 09:41:20;;;;;;;1.30;1.30;;;;;;;;;;5028900;28;20423;-75
2022/07/12 09:43:46;;;;;;;3.70;1.80;;;;;;;;;;5028981;28;20415;-73
2022/07/12 09:46:14;;;;;;;1.73;1.63;;;;;;;;;;5028940;28;20431;-74
2022/07/12 09:48:41;;;;;;;1.83;1.67;;;;;;;;;;5029249;28;20498;-75
2022/07/12 09:51:08;;;;;;;1.87;1.77;;;;;;;;;;5030919;28;20485;-75
2022/07/12 09:53:44;;;;;;;1.80;1.70;;;;;;;;;;5031698;28;20930;-76
2022/07/12 09:56:11;;;;;;;5.07;1.60;;;;;;;;;;5031846;28;20437;-76
2022/07/12 09:58:37;;;;;;;1.53;1.43;;;;;;;;;;5032794;28;20470;-75
2022/07/12 10:01:04;;;;;;;1.70;1.60;;;;;;;;;;5032160;28;20431;-80
2022/07/12 10:03:34;;;;;;;3.73;1.80;;;;;;;;;;5030845;28;20317;-75
2022/07/12 10:06:01;;;;;;;1.47;1.47;;;;;;;;;;5032429;28;20438;-78
2022/07/12 10:08:28;;;;;;;1.60;1.60;;;;;;;;;;5031839;28;20435;-79
2022/07/12 10:10:54;;;;;;;1.57;1.57;;;;;;;;;;5027279;28;20427;-75
2022/07/12 10:13:20;;;;;;;3.67;1.83;;;;;;;;;;5031198;28;20842;-75
2022/07/12 10:15:50;;;;;;;2.03;1.93;;;;;;;;;;5031320;28;20511;-75
2022/07/12 10:18:17;;;;;;;2.97;1.93;;;;;;;;;;5030837;28;20478;-77
2022/07/12 10:20:44;;;;;;;5.13;1.70;;;;;;;;;;5031579;28;20458;-74
2022/07/12 10:23:30;;;;;;;2.10;2.10;;;;;;;;;;5031753;28;20434;-75
2022/07/12 10:25:57;;;;;;;4.47;2.20;;;;;;;;;;5030747;28;20442;-74
2022/07/12 10:28:23;;;;;;;1.93;1.93;;;;;;;;;;5032159;28;20415;-79
2022/07/12 10:30:49;;;;;;;1.97;1.87;;;;;;;;;;5031114;28;21557;-77
2022/07/12 10:33:19;;;;;;;2.00;1.90;;;;;;;;;;5030338;28;20419;-73
2022/07/12 10:35:58;;;;;;;3.93;1.83;;;;;;;;;;5031248;28;20451;-72
2022/07/12 10:38:25;;;;;;;2.37;2.17;;;;;;;;;;5031418;28;20482;-78
2022/07/12 10:40:51;;;;;;;1.80;1.70;;;;;;;;;;5030182;28;20415;-79
2022/07/12 10:43:18;;;;;;;2.07;2.00;;;;;;;;;;5027985;28;20449;-73
2022/07/12 10:45:45;;;;;;;1.47;1.47;;;;;;;;;;5027158;28;20973;-76
2022/07/12 10:48:13;;;;;;;1.90;1.90;;;;;;;;;;5031165;28;20427;-74
2022/07/12 10:50:45;;;;;;;2.43;1.70;;;;;;;;;;5030940;28;20448;-81
2022/07/12 10:53:25;;;;;;;1.40;1.40;;;;;;;;;;5030819;28;20553;-72
2022/07/12 10:56:10;;;;;;;2.47;2.37;;;;;;;;;;5031176;28;20457;-74
2022/07/12 10:58:37;;;;;;;9.43;2.10;;;;;;;;;;5031298;28;20478;-81
2022/07/12 11:01:04;;;;;;;2.00;2.00;;;;;;;;;;5030428;28;20416;-82
2022/07/12 11:03:32;;;;;;;1.47;1.47;;;;;;;;;;5031095;28;20419;-79
2022/07/12 11:06:05;;;;;;;3.13;1.90;;;;;;;;;;5030542;28;20435;-78
2022/07/12 11:08:31;;;;;;;2.60;1.80;;;;;;;;;;5030875;28;20430;-84
2022/07/12 11:10:58;;;;;;;2.93;1.77;;;;;;;;;;5028135;28;20946;-77
2022/07/12 11:13:25;;;;;;;3.90;1.70;;;;;;;;;;5030986;28;20415;-74
2022/07/12 11:16:00;;;;;;;5.17;2.20;;;;;;;;;;5030603;28;20481;-79
2022/07/12 11:18:30;;;;;;;2.10;2.00;;;;;;;;;;5031182;28;20500;-77
2022/07/12 11:21:00;;;;;;;1.67;1.67;;;;;;;;;;5030615;28;20417;-79
2022/07/12 11:23:26;;;;;;;6.23;1.83;;;;;;;;;;5030666;28;20419;-74
2022/07/12 11:26:00;;;;;;;1.70;1.70;;;;;;;;;;5030848;28;20419;-77
2022/07/12 11:28:27;;;;;;;2.13;2.10;;;;;;;;;;5031308;28;20423;-80
2022/07/12 11:30:54;;;;;;;1.30;1.30;;;;;;;;;;5030744;28;20423;-80
2022/07/12 11:33:25;;;;;;;2.33;2.23;;;;;;;;;;5030859;28;20774;-79
2022/07/12 11:35:51;;;;;;;1.90;1.90;;;;;;;;;;5029514;28;20455;-75
2022/07/12 11:38:24;;;;;;;2.03;2.03;;;;;;;;;;5029771;28;20489;-79
2022/07/12 11:40:54;;;;;;;1.67;1.67;;;;;;;;;;5030222;28;20426;-81
2022/07/12 11:43:21;;;;;;;1.80;1.70;;;;;;;;;;5030171;28;20423;-81
2022/07/12 11:45:47;;;;;;;2.20;1.53;;;;;;;;;;5030468;28;20458;-76
2022/07/12 11:48:13;;;;;;;1.97;1.97;;;;;;;;;;5030756;28;20423;-76
2022/07/12 11:50:44;;;;;;;1.60;1.50;;;;;;;;;;5030381;28;20424;-79
2022/07/12 11:53:20;;;;;;;1.87;1.87;;;;;;;;;;5024984;28;21027;-75
2022/07/12 11:55:47;;;;;;;1.50;1.40;;;;;;;;;;5028724;28;20489;-78
2022/07/12 11:58:13;;;;;;;2.60;1.47;;;;;;;;;;5029922;28;20487;-76
2022/07/12 12:00:39;;;;;;;1.40;1.40;;;;;;;;;;5030314;28;20419;-75
2022/07/12 12:03:06;;;;;;;2.20;1.93;;;;;;;;;;5029380;28;20509;-79
2022/07/12 12:05:33;;;;;;;1.80;1.73;;;;;;;;;;5030062;28;20427;-77
2022/07/12 12:07:59;;;;;;;1.60;1.60;;;;;;;;;;5029816;28;20411;-80
2022/07/12 12:10:25;;;;;;;2.10;1.37;;;;;;;;;;5029286;28;20542;-79
2022/07/12 12:12:52;;;;;;;1.53;1.53;;;;;;;;;;5029600;28;20427;-81
2022/07/12 12:15:19;;;;;;;1.90;1.50;;;;;;;;;;5029112;28;20525;-75
2022/07/12 12:17:58;;;;;;;1.77;1.67;;;;;;;;;;5029554;28;20482;-79
2022/07/12 12:20:28;;;;;;;6.73;1.63;;;;;;;;;;5029416;28;20842;-75
2022/07/12 12:22:55;;;;;;;2.40;1.73;;;;;;;;;;5040064;28;20461;-78
2022/07/12 12:25:22;;;;;;;3.70;1.50;;;;;;;;;;5029488;28;20419;-74
2022/07/12 12:27:49;;;;;;;1.70;1.70;;;;;;;;;;5029150;28;20473;-77
2022/07/12 12:30:16;;;;;;;1.50;1.50;;;;;;;;;;5028887;28;20434;-76
2022/07/12 12:32:52;;;;;;;5.10;2.30;;;;;;;;;;5029801;28;20930;-80
2022/07/12 12:35:22;;;;;;;3.20;1.43;;;;;;;;;;5028984;28;20517;-77
2022/07/12 12:37:59;;;;;;;3.37;1.97;;;;;;;;;;5029785;28;20481;-76
2022/07/12 12:40:26;;;;;;;5.30;1.77;;;;;;;;;;5028770;28;20521;-80
2022/07/12 12:42:53;;;;;;;2.10;1.70;;;;;;;;;;5028908;28;20519;-76
2022/07/12 12:45:22;;;;;;;2.93;1.43;;;;;;;;;;5029541;28;20932;-79
2022/07/12 12:47:52;;;;;;;4.33;2.00;;;;;;;;;;5029158;28;20419;-74
2022/07/12 12:50:35;;;;;;;1.30;1.30;;;;;;;;;;5029389;28;20473;-75
2022/07/12 12:53:06;;;;;;;1.60;1.43;;;;;;;;;;5028413;28;20542;-74
2022/07/12 12:55:32;;;;;;;1.50;1.40;;;;;;;;;;5029665;28;20886;-80
2022/07/12 12:58:00;;;;;;;4.13;1.80;;;;;;;;;;5029358;28;20562;-74
2022/07/12 13:00:25;;;;;;;3.90;1.37;;;;;;;;;;5029294;28;20423;-75
2022/07/12 13:02:51;;;;;;;0.90;0.90;;;;;;;;;;5028113;28;20500;-76
2022/07/12 13:05:17;;;;;;;1.70;1.60;;;;;;;;;;5028016;28;20427;-79
2022/07/12 13:07:43;;;;;;;7.53;1.77;;;;;;;;;;5029063;28;20435;-77
2022/07/12 13:10:09;;;;;;;2.10;1.50;;;;;;;;;;5028978;28;20431;-78
2022/07/12 13:12:35;;;;;;;2.40;1.33;;;;;;;;;;5029377;28;20431;-78
2022/07/12 13:15:01;;;;;;;2.73;1.40;;;;;;;;;;5023704;28;20426;-75
2022/07/12 13:17:27;;;;;;;4.50;1.37;;;;;;;;;;5029224;28;20558;-76
2022/07/12 13:19:53;;;;;;;2.70;1.23;;;;;;;;;;5028035;28;20439;-78
2022/07/12 13:22:19;;;;;;;1.60;1.60;;;;;;;;;;5028316;28;20518;-76
2022/07/12 13:24:45;;;;;;;1.43;1.43;;;;;;;;;;5029018;28;20185;-78
2022/07/12 13:27:11;;;;;;;1.37;1.37;;;;;;;;;;5032563;28;20430;-80
2022/07/12 13:29:37;;;;;;;1.33;1.33;;;;;;;;;;5032888;28;20185;-76
2022/07/12 13:32:03;;;;;;;1.50;1.37;;;;;;;;;;5032638;28;20850;-78
2022/07/12 13:34:29;;;;;;;3.00;1.80;;;;;;;;;;5034445;28;20427;-78
2022/07/12 13:36:55;;;;;;;2.00;1.53;;;;;;;;;;5028641;28;20455;-76
2022/07/12 13:42:06;;;;;;;1.17;1.17;;;;;;;;;;5029470;28;20211;-76
2022/07/12 13:44:32;;;;;;;4.37;1.70;;;;;;;;;;5031214;28;20419;-75
2022/07/12 13:46:58;;;;;;;1.03;1.03;;;;;;;;;;5032239;28;20813;-76
2022/07/12 13:49:24;;;;;;;1.40;1.40;;;;;;;;;;5032382;28;20770;-75
2022/07/12 13:51:50;;;;;;;1.20;1.20;;;;;;;;;;5031333;28;20833;-75
2022/07/12 13:54:16;;;;;;;1.30;1.30;;;;;;;;;;5031071;28;20446;-75
2022/07/12 13:56:42;;;;;;;11.10;1.97;;;;;;;;;;5030902;28;20274;-76
2022/07/12 13:59:08;;;;;;;1.90;1.40;;;;;;;;;;5031258;28;20986;-75
2022/07/12 14:01:34;;;;;;;1.87;1.33;;;;;;;;;;5031748;28;20951;-75
2022/07/12 14:04:00;;;;;;;1.50;1.50;;;;;;;;;;5032378;28;20489;-74
2022/07/12 14:06:26;;;;;;;1.60;1.50;;;;;;;;;;5032297;28;20445;-74
2022/07/12 14:08:52;;;;;;;1.50;1.40;;;;;;;;;;5032394;28;20415;-75
2022/07/12 14:11:18;;;;;;;1.20;1.20;;;;;;;;;;5032166;28;20446;-74
2022/07/12 14:13:44;;;;;;;1.40;1.37;;;;;;;;;;5032228;28;20451;-74
2022/07/12 14:16:10;;;;;;;1.87;1.43;;;;;;;;;;5032364;28;20478;-75
2022/07/12 14:18:36;;;;;;;1.53;1.53;;;;;;;;;;5032321;28;20487;-76
2022/07/12 14:21:02;;;;;;;3.50;1.27;;;;;;;;;;5030836;28;20422;-76
2022/07/12 14:23:29;;;;;;;2.13;1.90;;;;;;;;;;5032089;28;20451;-76
2022/07/12 14:25:55;;;;;;;1.70;1.60;;;;;;;;;;5032212;28;20427;-75
2022/07/12 14:28:21;;;;;;;3.20;1.40;;;;;;;;;;5030521;28;20514;-78
2022/07/12 14:30:47;;;;;;;1.40;1.40;;;;;;;;;;5030452;28;20443;-77
2022/07/12 14:33:13;;;;;;;2.40;1.40;;;;;;;;;;5032157;28;20427;-71
2022/07/12 14:35:39;;;;;;;7.90;1.23;;;;;;;;;;5029914;28;20431;-74
2022/07/12 14:38:05;;;;;;;1.70;1.40;;;;;;;;;;5031906;28;20478;-75
2022/07/12 14:40:31;;;;;;;1.20;1.20;;;;;;;;;;5034128;28;20470;-75
2022/07/12 14:42:57;;;;;;;1.53;1.43;;;;;;;;;;5031728;28;20459;-75
2022/07/12 14:45:24;;;;;;;1.30;1.30;;;;;;;;;;5031591;28;20411;-74
2022/07/12 14:47:50;;;;;;;6.93;1.30;;;;;;;;;;5031661;28;20514;-78
2022/07/12 14:50:16;;;;;;;1.03;1.03;;;;;;;;;;5031375;28;20420;-75
2022/07/12 14:52:43;;;;;;;2.83;1.80;;;;;;;;;;5031166;28;20478;-78
2022/07/12 14:55:09;;;;;;;3.90;1.43;;;;;;;;;;5031403;28;20558;-74
2022/07/12 14:57:36;;;;;;;1.50;1.40;;;;;;;;;;5030170;28;20486;-77